Time;durP1;ratioP1;P1;durP2;ratioP2;P2;SDS_P1;SDS_P2;PMS_P1;PMS_P2;Temp;Humidity;BMP_temperature;BMP_pressure;BME280_temperature;BME280_humidity;BME280_pressure;Samples;Min_cycle;Max_cycle;Signal;HPM_P1;HPM_P2
2022/07/24 00:00:23;;;;;;;16.37;13.87;;;19.30;99.90;;;;;;5079564;28;20646;-79
2022/07/24 00:02:49;;;;;;;16.40;14.43;;;19.30;99.90;;;;;;5077984;28;20181;-80
2022/07/24 00:05:15;;;;;;;16.07;14.33;;;19.20;99.90;;;;;;5080000;28;20255;-80
2022/07/24 00:07:41;;;;;;;17.13;14.67;;;19.20;99.90;;;;;;5079199;28;20177;-80
2022/07/24 00:10:07;;;;;;;15.63;13.83;;;19.20;99.90;;;;;;5077806;28;20185;-80
2022/07/24 00:12:33;;;;;;;16.23;13.80;;;19.20;99.90;;;;;;5077740;28;20189;-79
2022/07/24 00:14:59;;;;;;;16.23;14.23;;;19.10;99.90;;;;;;5079403;28;20198;-80
2022/07/24 00:17:25;;;;;;;17.83;14.90;;;;;;;;;;5079066;28;20174;-80
2022/07/24 00:19:50;;;;;;;17.70;15.80;;;19.10;99.90;;;;;;5078787;28;20191;-81
2022/07/24 00:22:17;;;;;;;20.13;14.57;;;;;;;;;;5079527;28;20614;-80
2022/07/24 00:24:42;;;;;;;17.53;15.63;;;19.00;99.90;;;;;;5077601;28;20201;-80
2022/07/24 00:27:08;;;;;;;15.93;14.23;;;19.00;99.90;;;;;;5077728;28;20254;-80
2022/07/24 00:29:34;;;;;;;18.93;16.93;;;;;;;;;;5079469;28;20172;-80
2022/07/24 00:32:00;;;;;;;17.20;15.40;;;19.00;99.90;;;;;;5077348;28;20185;-80
2022/07/24 00:34:25;;;;;;;17.93;15.23;;;19.00;99.90;;;;;;5076986;28;20197;-79
2022/07/24 00:36:51;;;;;;;17.13;15.13;;;19.00;99.90;;;;;;5079264;28;20169;-80
2022/07/24 00:39:17;;;;;;;17.73;15.93;;;19.00;99.90;;;;;;5078332;28;20194;-80
2022/07/24 00:41:42;;;;;;;18.57;16.00;;;19.00;99.90;;;;;;5077408;28;20186;-80
2022/07/24 00:44:11;;;;;;;17.27;15.53;;;19.10;99.90;;;;;;5078168;28;20185;-80
2022/07/24 00:46:39;;;;;;;19.37;16.47;;;19.10;99.90;;;;;;5077388;28;20262;-80
2022/07/24 00:49:11;;;;;;;20.47;15.93;;;19.10;99.90;;;;;;5077836;28;20571;-80
2022/07/24 00:51:40;;;;;;;18.87;16.30;;;19.10;99.90;;;;;;5079034;28;20162;-81
2022/07/24 00:54:07;;;;;;;16.63;14.83;;;19.10;99.90;;;;;;5076553;28;20624;-80
2022/07/24 00:56:33;;;;;;;16.57;14.77;;;19.10;99.90;;;;;;5078520;28;20230;-80
2022/07/24 00:59:00;;;;;;;17.87;16.03;;;19.10;99.90;;;;;;5076994;28;20185;-80
2022/07/24 01:01:26;;;;;;;17.60;14.80;;;19.10;99.90;;;;;;5078478;28;20174;-80
2022/07/24 01:03:52;;;;;;;17.00;15.23;;;19.10;99.90;;;;;;5076680;28;20188;-80
2022/07/24 01:06:19;;;;;;;18.27;16.30;;;19.10;99.90;;;;;;5077880;28;20208;-80
2022/07/24 01:08:46;;;;;;;16.93;15.23;;;19.10;99.90;;;;;;5078834;28;20224;-80
2022/07/24 01:11:12;;;;;;;16.73;15.00;;;19.00;99.90;;;;;;5078451;28;20169;-79
2022/07/24 01:13:39;;;;;;;17.40;15.60;;;19.00;99.90;;;;;;5078348;28;20576;-80
2022/07/24 01:16:06;;;;;;;17.30;15.60;;;19.00;99.90;;;;;;5078597;28;20197;-81
2022/07/24 01:18:31;;;;;;;16.83;15.03;;;19.00;99.90;;;;;;5077093;28;20181;-80
2022/07/24 01:20:57;;;;;;;17.23;15.53;;;;;;;;;;5076577;28;20188;-80
2022/07/24 01:23:23;;;;;;;16.80;15.00;;;19.00;99.90;;;;;;5078462;28;20269;-80
2022/07/24 01:25:49;;;;;;;19.47;16.10;;;;;;;;;;5077283;28;20241;-80
2022/07/24 01:28:16;;;;;;;19.60;16.33;;;18.90;99.90;;;;;;5078490;28;20178;-80
2022/07/24 01:30:41;;;;;;;18.53;16.63;;;18.90;99.90;;;;;;5078650;28;20174;-80
2022/07/24 01:33:07;;;;;;;17.20;15.33;;;;;;;;;;5081793;28;20220;-80
2022/07/24 01:35:33;;;;;;;19.20;17.20;;;18.90;99.90;;;;;;5081433;28;20207;-80
2022/07/24 01:37:59;;;;;;;20.27;16.47;;;18.80;99.90;;;;;;5081632;28;20185;-80
2022/07/24 01:40:25;;;;;;;18.30;16.50;;;18.80;99.90;;;;;;5081476;28;20267;-80
2022/07/24 01:42:51;;;;;;;17.93;15.77;;;18.70;99.90;;;;;;5081949;28;20189;-81
2022/07/24 01:45:17;;;;;;;18.67;16.40;;;18.70;99.90;;;;;;5082944;28;20201;-80
2022/07/24 01:47:43;;;;;;;18.33;15.67;;;;;;;;;;5082010;28;20201;-80
2022/07/24 01:50:10;;;;;;;16.10;14.40;;;18.70;99.90;;;;;;5082591;28;20189;-79
2022/07/24 01:52:36;;;;;;;17.17;15.10;;;18.70;99.90;;;;;;5081825;28;20176;-80
2022/07/24 01:55:02;;;;;;;16.80;15.03;;;18.70;99.90;;;;;;5080308;28;20237;-80
2022/07/24 01:57:28;;;;;;;17.53;15.83;;;18.60;99.90;;;;;;5081982;28;20173;-80
2022/07/24 01:59:54;;;;;;;22.90;15.87;;;;;;;;;;5080656;28;20188;-80
2022/07/24 02:02:20;;;;;;;18.43;16.57;;;18.60;99.90;;;;;;5081631;28;20562;-80
2022/07/24 02:04:46;;;;;;;18.83;16.00;;;;;;;;;;5079822;28;20208;-81
2022/07/24 02:07:11;;;;;;;18.83;16.50;;;18.50;99.90;;;;;;5079646;28;20255;-80
2022/07/24 02:09:37;;;;;;;17.90;14.60;;;;;;;;;;5081849;28;20173;-80
2022/07/24 02:12:03;;;;;;;20.80;16.13;;;18.40;99.90;;;;;;5081528;28;20264;-80
2022/07/24 02:14:29;;;;;;;18.07;16.07;;;18.30;99.90;;;;;;5081784;28;20220;-80
2022/07/24 02:16:55;;;;;;;18.00;16.10;;;18.30;99.90;;;;;;5080612;28;20288;-80
2022/07/24 02:19:23;;;;;;;18.53;15.93;;;;;;;;;;5081117;28;20184;-80
2022/07/24 02:21:48;;;;;;;19.07;16.60;;;18.20;99.90;;;;;;5079455;28;20184;-80
2022/07/24 02:24:14;;;;;;;18.30;16.33;;;18.20;99.90;;;;;;5081075;28;20177;-80
2022/07/24 02:26:40;;;;;;;19.57;16.70;;;;;;;;;;5079772;28;20213;-80
2022/07/24 02:29:06;;;;;;;19.53;17.47;;;18.20;99.90;;;;;;5081479;28;20534;-80
2022/07/24 02:31:32;;;;;;;18.93;16.07;;;;;;;;;;5079769;28;20181;-80
2022/07/24 02:33:57;;;;;;;18.00;16.10;;;18.20;99.90;;;;;;5081176;28;20615;-80
2022/07/24 02:36:23;;;;;;;19.97;16.90;;;18.20;99.90;;;;;;5081802;28;20264;-80
2022/07/24 02:38:49;;;;;;;18.17;16.07;;;18.10;99.90;;;;;;5079070;28;20197;-80
2022/07/24 02:41:14;;;;;;;18.67;16.73;;;18.10;99.90;;;;;;5079809;28;20180;-80
2022/07/24 02:43:40;;;;;;;21.73;16.40;;;18.10;99.90;;;;;;5080835;28;20209;-80
2022/07/24 02:46:06;;;;;;;18.00;16.10;;;18.10;99.90;;;;;;5079192;28;20211;-80
2022/07/24 02:48:31;;;;;;;18.57;16.47;;;18.10;99.90;;;;;;5080689;28;20200;-80
2022/07/24 02:50:57;;;;;;;18.37;16.33;;;18.10;99.90;;;;;;5079616;28;20173;-81
2022/07/24 02:53:23;;;;;;;18.53;15.97;;;18.10;99.90;;;;;;5078954;28;20180;-80
2022/07/24 02:55:49;;;;;;;18.47;16.57;;;;;;;;;;5081109;28;20197;-80
2022/07/24 02:58:15;;;;;;;17.17;15.37;;;18.00;99.90;;;;;;5081186;28;20584;-80
2022/07/24 03:00:40;;;;;;;18.43;15.93;;;18.00;99.90;;;;;;5081120;28;20636;-80
2022/07/24 03:03:06;;;;;;;19.30;16.47;;;;;;;;;;5081233;28;20173;-80
2022/07/24 03:05:32;;;;;;;18.43;16.53;;;18.00;99.90;;;;;;5081070;28;20208;-80
2022/07/24 03:07:58;;;;;;;19.00;16.93;;;;;;;;;;5079453;28;20184;-80
2022/07/24 03:10:24;;;;;;;20.00;18.00;;;18.00;99.90;;;;;;5079654;28;20201;-80
2022/07/24 03:12:50;;;;;;;19.60;16.10;;;17.90;99.90;;;;;;5079231;28;20172;-81
2022/07/24 03:15:16;;;;;;;20.47;16.50;;;17.90;99.90;;;;;;5079365;28;20201;-81
2022/07/24 03:17:50;;;;;;;18.67;16.77;;;17.90;99.90;;;;;;5080684;28;20207;-81
2022/07/24 03:20:15;;;;;;;19.67;16.80;;;17.90;99.90;;;;;;5080412;28;20177;-81
2022/07/24 03:22:41;;;;;;;20.27;16.90;;;17.90;99.90;;;;;;5080234;28;20276;-80
2022/07/24 03:25:07;;;;;;;19.53;16.97;;;17.80;99.90;;;;;;5081138;28;20557;-80
2022/07/24 03:27:33;;;;;;;19.40;17.40;;;17.80;99.90;;;;;;5080410;28;20200;-81
2022/07/24 03:29:58;;;;;;;20.43;18.33;;;17.80;99.90;;;;;;5078981;28;20212;-81
2022/07/24 03:32:24;;;;;;;19.70;16.77;;;17.80;99.90;;;;;;5079635;28;20268;-80
2022/07/24 03:34:50;;;;;;;20.00;17.83;;;;;;;;;;5078248;28;20261;-80
2022/07/24 03:37:16;;;;;;;19.77;17.67;;;17.70;99.90;;;;;;5079428;28;20208;-80
2022/07/24 03:39:42;;;;;;;19.13;16.43;;;17.60;99.90;;;;;;5078188;28;20284;-81
2022/07/24 03:42:07;;;;;;;20.50;18.17;;;17.60;99.90;;;;;;5078906;28;20567;-80
2022/07/24 03:44:33;;;;;;;19.20;17.20;;;17.50;99.90;;;;;;5078572;28;20693;-80
2022/07/24 03:46:59;;;;;;;20.17;17.60;;;17.60;99.90;;;;;;5080833;28;20276;-80
2022/07/24 03:49:25;;;;;;;21.57;17.83;;;;;;;;;;5078905;28;20631;-81
2022/07/24 03:51:50;;;;;;;18.83;16.83;;;17.40;99.90;;;;;;5080229;28;20201;-80
2022/07/24 03:54:16;;;;;;;19.63;17.47;;;17.30;99.90;;;;;;5079882;28;20177;-80
2022/07/24 03:56:42;;;;;;;21.70;17.80;;;17.30;99.90;;;;;;5079786;28;20181;-81
2022/07/24 03:59:08;;;;;;;19.40;17.23;;;17.30;99.90;;;;;;5078556;28;20636;-81
2022/07/24 04:01:34;;;;;;;20.27;16.97;;;17.30;99.90;;;;;;5079243;28;20180;-81
2022/07/24 04:04:04;;;;;;;20.93;18.00;;;;;;;;;;5079558;28;20210;-80
2022/07/24 04:06:32;;;;;;;19.50;17.40;;;17.30;99.90;;;;;;5079166;28;20190;-80
2022/07/24 04:08:58;;;;;;;21.13;17.80;;;17.30;99.90;;;;;;5077653;28;20662;-81
2022/07/24 04:11:23;;;;;;;22.30;18.90;;;17.30;99.90;;;;;;5079484;28;20234;-81
2022/07/24 04:13:49;;;;;;;20.27;18.17;;;17.30;99.90;;;;;;5078030;28;20196;-80
2022/07/24 04:16:15;;;;;;;22.43;18.83;;;17.20;99.90;;;;;;5077829;28;20666;-81
2022/07/24 04:18:41;;;;;;;22.30;17.80;;;17.30;99.90;;;;;;5078155;28;20200;-81
2022/07/24 04:21:07;;;;;;;19.73;17.73;;;17.30;99.90;;;;;;5078274;28;20203;-81
2022/07/24 04:23:32;;;;;;;19.57;17.27;;;17.30;99.90;;;;;;5078937;28;20203;-81
2022/07/24 04:25:58;;;;;;;23.87;18.40;;;17.30;99.90;;;;;;5080134;28;20654;-80
2022/07/24 04:28:24;;;;;;;19.80;17.80;;;17.30;99.90;;;;;;5079209;28;20178;-80
2022/07/24 04:30:50;;;;;;;19.97;17.87;;;;;;;;;;5078187;28;20177;-81
2022/07/24 04:33:16;;;;;;;20.40;18.30;;;17.30;99.90;;;;;;5077988;28;20176;-80
2022/07/24 04:35:41;;;;;;;20.17;17.87;;;17.30;99.90;;;;;;5079720;28;20197;-81
2022/07/24 04:38:07;;;;;;;23.33;19.80;;;17.30;99.90;;;;;;5079071;28;20638;-81
2022/07/24 04:40:33;;;;;;;21.83;19.50;;;;;;;;;;5077730;28;20173;-81
2022/07/24 04:42:59;;;;;;;20.93;18.23;;;17.30;99.90;;;;;;5077444;28;20213;-81
2022/07/24 04:45:24;;;;;;;20.77;18.53;;;17.40;99.90;;;;;;5079543;28;20197;-81
2022/07/24 04:47:50;;;;;;;20.10;17.80;;;17.40;99.90;;;;;;5079048;28;20161;-81
2022/07/24 04:50:16;;;;;;;21.23;17.70;;;17.40;99.90;;;;;;5079537;28;20572;-81
2022/07/24 04:52:42;;;;;;;20.20;17.87;;;17.50;99.90;;;;;;5077763;28;20177;-81
2022/07/24 04:55:09;;;;;;;19.70;17.60;;;17.50;99.90;;;;;;5079191;28;20203;-81
2022/07/24 04:57:34;;;;;;;20.03;16.87;;;17.50;99.90;;;;;;5080538;28;20184;-81
2022/07/24 05:00:00;;;;;;;18.77;16.87;;;17.60;99.90;;;;;;5080799;28;20623;-81
2022/07/24 05:02:26;;;;;;;20.17;18.17;;;17.70;99.90;;;;;;5081107;28;20288;-81
2022/07/24 05:04:52;;;;;;;19.37;17.33;;;;;;;;;;5078100;28;20257;-81
2022/07/24 05:07:17;;;;;;;20.13;17.17;;;17.80;99.90;;;;;;5077735;28;20200;-80
2022/07/24 05:09:43;;;;;;;19.87;17.87;;;;;;;;;;5077363;28;20230;-81
2022/07/24 05:12:09;;;;;;;18.90;16.67;;;18.00;99.90;;;;;;5078867;28;20174;-81
2022/07/24 05:14:35;;;;;;;17.93;16.07;;;18.10;99.90;;;;;;5078421;28;20682;-81
2022/07/24 05:17:00;;;;;;;16.23;14.57;;;18.10;99.90;;;;;;5076930;28;20224;-81
2022/07/24 05:19:26;;;;;;;18.90;15.43;;;18.20;99.90;;;;;;5078352;28;20184;-81
2022/07/24 05:21:52;;;;;;;16.97;14.70;;;;;;;;;;5078424;28;20223;-81
2022/07/24 05:24:18;;;;;;;16.67;15.07;;;18.40;99.90;;;;;;5076618;28;20552;-81
2022/07/24 05:26:44;;;;;;;16.07;14.37;;;;;;;;;;5078729;28;20663;-81
2022/07/24 05:29:09;;;;;;;15.10;13.50;;;18.50;99.90;;;;;;5076793;28;20178;-81
2022/07/24 05:31:35;;;;;;;15.03;13.17;;;18.60;99.90;;;;;;5078185;28;20184;-81
2022/07/24 05:34:04;;;;;;;15.23;13.20;;;18.60;99.90;;;;;;5076043;28;20178;-81
2022/07/24 05:36:30;;;;;;;13.87;12.47;;;18.60;99.90;;;;;;5080125;28;20179;-81
2022/07/24 05:38:55;;;;;;;14.00;12.57;;;18.60;99.90;;;;;;5076785;28;20213;-81
2022/07/24 05:41:21;;;;;;;14.97;13.40;;;18.70;99.90;;;;;;5077875;28;20208;-81
2022/07/24 05:43:47;;;;;;;14.37;12.57;;;;;;;;;;5078741;28;20178;-82
2022/07/24 05:46:13;;;;;;;14.07;12.50;;;18.80;99.90;;;;;;5078832;28;20580;-81
2022/07/24 05:48:39;;;;;;;14.63;13.03;;;18.80;99.90;;;;;;5077477;28;20181;-81
2022/07/24 05:51:04;;;;;;;13.50;12.20;;;18.90;99.90;;;;;;5077105;28;20182;-81
2022/07/24 05:53:30;;;;;;;13.70;11.47;;;18.90;99.90;;;;;;5078971;28;20178;-80
2022/07/24 05:55:56;;;;;;;13.77;11.63;;;19.00;99.90;;;;;;5078394;28;20210;-81
2022/07/24 05:58:21;;;;;;;12.00;10.80;;;19.10;99.90;;;;;;5077622;28;20187;-80
2022/07/24 06:00:47;;;;;;;13.43;11.73;;;19.10;99.90;;;;;;5078267;28;21042;-81
2022/07/24 06:03:13;;;;;;;15.07;11.23;;;19.10;99.90;;;;;;5078461;28;20176;-81
2022/07/24 06:05:38;;;;;;;13.07;11.40;;;19.20;99.90;;;;;;5076589;28;20211;-81
2022/07/24 06:08:05;;;;;;;13.07;11.50;;;19.30;99.90;;;;;;5076653;28;20547;-81
2022/07/24 06:10:31;;;;;;;11.70;10.50;;;19.30;99.90;;;;;;5075732;28;20619;-81
2022/07/24 06:12:57;;;;;;;12.17;10.87;;;19.40;99.90;;;;;;5075009;28;20177;-80
2022/07/24 06:15:24;;;;;;;13.03;11.00;;;19.50;99.90;;;;;;5077272;28;20653;-81
2022/07/24 06:17:49;;;;;;;12.03;10.80;;;19.60;99.90;;;;;;5077306;28;20168;-81
2022/07/24 06:20:16;;;;;;;12.77;11.37;;;19.60;99.90;;;;;;5079084;28;20273;-81
2022/07/24 06:22:43;;;;;;;13.33;12.10;;;19.70;99.90;;;;;;5080637;28;20257;-80
2022/07/24 06:25:09;;;;;;;12.93;11.53;;;19.70;99.90;;;;;;5081309;28;20246;-80
2022/07/24 06:27:43;;;;;;;12.10;11.00;;;19.80;99.90;;;;;;5079938;28;20214;-80
2022/07/24 06:30:23;;;;;;;12.07;10.87;;;19.80;99.90;;;;;;5080413;28;20178;-80
2022/07/24 06:32:49;;;;;;;11.93;10.60;;;19.90;99.90;;;;;;5078490;28;20169;-81
2022/07/24 06:35:15;;;;;;;11.67;9.93;;;20.00;99.90;;;;;;5080301;28;20218;-80
2022/07/24 06:37:42;;;;;;;12.00;10.83;;;20.10;99.90;;;;;;5079905;28;20632;-80
2022/07/24 06:40:08;;;;;;;12.37;10.33;;;20.10;99.90;;;;;;5078697;28;20590;-80
2022/07/24 06:42:35;;;;;;;11.30;10.20;;;20.20;99.90;;;;;;5078402;28;20186;-83
2022/07/24 06:45:00;;;;;;;11.10;9.97;;;20.30;99.90;;;;;;5078649;28;20189;-81
2022/07/24 06:47:26;;;;;;;14.33;10.17;;;20.30;99.90;;;;;;5077599;28;20256;-81
2022/07/24 06:49:53;;;;;;;13.57;10.27;;;20.40;99.90;;;;;;5078204;28;20167;-81
2022/07/24 06:52:19;;;;;;;12.00;9.70;;;20.50;99.90;;;;;;5078571;28;20182;-82
2022/07/24 06:54:45;;;;;;;11.87;10.67;;;20.60;99.90;;;;;;5076931;28;20194;-82
2022/07/24 06:57:11;;;;;;;12.53;9.67;;;20.70;99.90;;;;;;5078435;28;20179;-80
2022/07/24 06:59:37;;;;;;;11.27;9.83;;;20.80;99.90;;;;;;5076788;28;20187;-79
2022/07/24 07:02:02;;;;;;;10.33;8.20;;;20.90;99.90;;;;;;5077485;28;20251;-79
2022/07/24 07:04:28;;;;;;;13.03;9.53;;;21.10;99.90;;;;;;5079255;28;20199;-79
2022/07/24 07:06:54;;;;;;;10.27;9.20;;;21.10;99.90;;;;;;5078570;28;20619;-78
2022/07/24 07:09:20;;;;;;;11.43;9.30;;;21.20;99.90;;;;;;5079607;28;20237;-78
2022/07/24 07:11:45;;;;;;;10.77;9.73;;;21.30;99.90;;;;;;5078651;28;20204;-79
2022/07/24 07:14:11;;;;;;;10.93;9.73;;;21.40;99.90;;;;;;5078437;28;20229;-78
2022/07/24 07:16:37;;;;;;;10.43;9.13;;;21.40;99.90;;;;;;5080244;28;20171;-79
2022/07/24 07:19:02;;;;;;;9.33;8.43;;;21.50;99.90;;;;;;5079397;28;20183;-81
2022/07/24 07:21:28;;;;;;;10.27;9.20;;;21.60;99.90;;;;;;5078151;28;20176;-81
2022/07/24 07:23:54;;;;;;;10.07;9.07;;;21.70;99.90;;;;;;5079458;28;20184;-81
2022/07/24 07:26:19;;;;;;;9.93;8.93;;;21.80;99.90;;;;;;5078586;28;20235;-81
2022/07/24 07:28:46;;;;;;;12.30;9.27;;;22.00;99.90;;;;;;5077001;28;20215;-81
2022/07/24 07:31:12;;;;;;;11.20;9.80;;;22.10;99.90;;;;;;5078053;28;20530;-81
2022/07/24 07:33:37;;;;;;;11.47;9.47;;;22.20;99.90;;;;;;5077111;28;20180;-80
2022/07/24 07:36:04;;;;;;;11.47;9.77;;;22.30;99.90;;;;;;5076694;28;20204;-81
2022/07/24 07:38:29;;;;;;;11.50;10.30;;;22.50;99.90;;;;;;5078062;28;20650;-81
2022/07/24 07:40:55;;;;;;;10.87;9.77;;;;;;;;;;5077497;28;20184;-82
2022/07/24 07:43:21;;;;;;;11.20;10.17;;;22.70;99.90;;;;;;5077233;28;20173;-81
2022/07/24 07:45:47;;;;;;;12.90;10.40;;;22.80;99.90;;;;;;5075194;28;20265;-81
2022/07/24 07:48:12;;;;;;;11.03;9.93;;;23.00;99.90;;;;;;5078274;28;20165;-81
2022/07/24 07:50:38;;;;;;;12.33;11.13;;;23.10;99.90;;;;;;5078443;28;20165;-81
2022/07/24 07:53:04;;;;;;;11.30;10.20;;;23.20;99.90;;;;;;5077062;28;20177;-81
2022/07/24 07:55:30;;;;;;;12.00;10.80;;;23.30;99.90;;;;;;5079496;28;20212;-80
2022/07/24 07:57:55;;;;;;;12.07;10.87;;;23.40;99.90;;;;;;5079944;28;20263;-81
2022/07/24 08:00:22;;;;;;;11.37;10.13;;;23.50;99.90;;;;;;5077681;28;20173;-80
2022/07/24 08:02:47;;;;;;;12.23;11.10;;;23.60;99.90;;;;;;5077497;28;20173;-81
2022/07/24 08:05:13;;;;;;;12.20;10.90;;;23.80;99.90;;;;;;5077458;28;20292;-81
2022/07/24 08:07:39;;;;;;;12.30;10.60;;;23.80;99.90;;;;;;5078742;28;20201;-80
2022/07/24 08:10:06;;;;;;;12.10;11.00;;;23.80;99.90;;;;;;5077960;28;20173;-81
2022/07/24 08:12:32;;;;;;;11.40;10.20;;;23.90;99.90;;;;;;5078495;28;20203;-80
2022/07/24 08:14:57;;;;;;;13.50;10.47;;;24.00;99.90;;;;;;5077011;28;20198;-81
2022/07/24 08:17:23;;;;;;;11.67;9.77;;;24.10;99.90;;;;;;5076804;28;20185;-81
2022/07/24 08:19:49;;;;;;;9.43;8.63;;;24.20;99.90;;;;;;5079656;28;20180;-81
2022/07/24 08:22:14;;;;;;;11.57;9.80;;;24.30;99.90;;;;;;5077850;28;20173;-81
2022/07/24 08:24:40;;;;;;;14.33;10.23;;;24.40;99.90;;;;;;5078830;28;20193;-81
2022/07/24 08:27:06;;;;;;;11.37;10.20;;;24.50;99.90;;;;;;5076543;28;20273;-80
2022/07/24 08:29:32;;;;;;;12.03;10.57;;;24.60;99.90;;;;;;5079103;28;20169;-81
2022/07/24 08:31:57;;;;;;;10.63;9.73;;;24.70;99.90;;;;;;5081124;28;20173;-81
2022/07/24 08:34:23;;;;;;;11.47;10.00;;;24.90;99.90;;;;;;5080700;28;20279;-80
2022/07/24 08:36:50;;;;;;;10.23;9.07;;;25.10;99.90;;;;;;5079281;28;20176;-81
2022/07/24 08:39:15;;;;;;;8.80;8.00;;;25.30;99.90;;;;;;5078351;28;20273;-81
2022/07/24 08:41:43;;;;;;;10.27;7.77;;;25.40;99.90;;;;;;5078645;28;20208;-80
2022/07/24 08:44:09;;;;;;;8.00;7.20;;;25.50;99.90;;;;;;5077129;28;20229;-81
2022/07/24 08:46:40;;;;;;;7.93;7.20;;;25.50;99.90;;;;;;5078335;28;20207;-81
2022/07/24 08:49:14;;;;;;;9.37;8.47;;;25.60;99.90;;;;;;5076708;28;20180;-81
2022/07/24 08:51:41;;;;;;;9.17;8.30;;;25.80;99.90;;;;;;5076887;28;20285;-81
2022/07/24 08:54:09;;;;;;;10.77;9.77;;;26.10;99.90;;;;;;5075602;28;20379;-80
2022/07/24 08:56:37;;;;;;;9.33;8.40;;;26.10;99.90;;;;;;5078716;28;20592;-81
2022/07/24 08:59:03;;;;;;;10.17;9.17;;;26.20;99.90;;;;;;5074905;28;20172;-80
2022/07/24 09:01:29;;;;;;;9.53;8.53;;;26.50;99.90;;;;;;5076838;28;20706;-81
2022/07/24 09:03:55;;;;;;;9.80;7.97;;;26.60;99.90;;;;;;5076416;28;20177;-78
2022/07/24 09:06:21;;;;;;;10.10;8.63;;;26.80;99.90;;;;;;5077477;28;20205;-79
2022/07/24 09:08:59;;;;;;;8.90;8.10;;;27.00;99.90;;;;;;5076502;28;20171;-79
2022/07/24 09:11:25;;;;;;;7.47;6.77;;;27.30;99.90;;;;;;5077295;28;20247;-79
2022/07/24 09:16:36;;;;;;;7.77;7.07;;;27.80;99.90;;;;;;5078562;28;20172;-80
2022/07/24 09:19:05;;;;;;;8.07;6.93;;;28.00;99.90;;;;;;5076443;28;20547;-78
2022/07/24 09:21:36;;;;;;;8.00;7.13;;;28.10;99.90;;;;;;5077258;28;20175;-79
2022/07/24 09:24:15;;;;;;;6.93;6.33;;;28.20;99.90;;;;;;5077514;28;20176;-80
2022/07/24 09:26:50;;;;;;;8.33;6.90;;;28.10;99.90;;;;;;5077735;28;20191;-79
2022/07/24 09:29:17;;;;;;;8.30;7.60;;;28.10;99.90;;;;;;5078338;28;20181;-80
2022/07/24 09:31:56;;;;;;;8.47;6.60;;;27.90;99.90;;;;;;5079575;28;20176;-80
2022/07/24 09:34:23;;;;;;;6.40;5.80;;;27.90;99.90;;;;;;5078238;28;20195;-80
2022/07/24 09:36:56;;;;;;;7.07;6.47;;;28.10;99.90;;;;;;5077724;28;20635;-79
2022/07/24 09:39:24;;;;;;;6.63;6.03;;;28.40;99.90;;;;;;5078127;28;20565;-80
2022/07/24 09:41:52;;;;;;;7.00;6.30;;;28.60;99.90;;;;;;5079357;28;20243;-80
2022/07/24 09:44:18;;;;;;;7.73;6.97;;;28.80;99.90;;;;;;5077505;28;20181;-80
2022/07/24 09:47:10;;;;;;;6.87;6.23;;;28.80;99.90;;;;;;5076489;28;20257;-80
2022/07/24 09:49:37;;;;;;;8.20;7.23;;;29.00;99.90;;;;;;5080676;28;20166;-79
2022/07/24 09:52:10;;;;;;;9.13;7.03;;;29.10;99.90;;;;;;5076521;28;20175;-80
2022/07/24 09:54:42;;;;;;;8.60;6.97;;;29.30;99.90;;;;;;5080430;28;20593;-80
2022/07/24 09:57:27;;;;;;;7.87;7.07;;;29.30;99.90;;;;;;5080245;28;20170;-79
2022/07/24 09:59:56;;;;;;;8.10;7.40;;;29.50;99.90;;;;;;5078970;28;20159;-79
2022/07/24 10:02:24;;;;;;;8.13;6.90;;;29.60;99.90;;;;;;5079793;28;20173;-79
2022/07/24 10:04:51;;;;;;;8.67;7.33;;;29.80;99.90;;;;;;5080092;28;20204;-79
2022/07/24 10:07:20;;;;;;;7.97;7.10;;;29.90;99.90;;;;;;5081048;28;20239;-79
2022/07/24 10:09:49;;;;;;;7.47;6.73;;;29.80;99.90;;;;;;5081267;28;20643;-79
2022/07/24 10:12:23;;;;;;;7.77;7.07;;;29.40;99.90;;;;;;5079332;28;20258;-80
2022/07/24 10:14:51;;;;;;;8.40;7.60;;;28.90;99.90;;;;;;5079145;28;20192;-79
2022/07/24 10:17:17;;;;;;;7.10;6.43;;;28.70;99.90;;;;;;5078021;28;20270;-81
2022/07/24 10:19:52;;;;;;;7.90;7.10;;;28.20;99.90;;;;;;5081708;28;20535;-80
2022/07/24 10:22:23;;;;;;;7.60;6.93;;;27.70;99.90;;;;;;5081197;28;20212;-81
2022/07/24 10:25:06;;;;;;;7.37;6.50;;;27.30;99.90;;;;;;5081370;28;20201;-81
2022/07/24 10:27:35;;;;;;;8.87;7.80;;;27.10;99.90;;;;;;5081074;28;20197;-81
2022/07/24 10:30:05;;;;;;;9.13;7.10;;;27.00;99.90;;;;;;5082256;28;20287;-81
2022/07/24 10:32:33;;;;;;;8.13;6.63;;;26.80;99.90;;;;;;5079806;28;20173;-81
2022/07/24 10:35:11;;;;;;;7.47;6.77;;;26.70;99.90;;;;;;5079521;28;20200;-83
2022/07/24 10:37:54;;;;;;;8.47;6.57;;;26.70;99.90;;;;;;5079858;28;20161;-83
2022/07/24 10:40:44;;;;;;;7.97;7.27;;;27.00;99.90;;;;;;5079219;28;20173;-81
2022/07/24 10:43:21;;;;;;;7.20;6.50;;;28.00;99.90;;;;;;5080369;28;20264;-83
2022/07/24 10:45:56;;;;;;;7.40;6.70;;;28.80;99.90;;;;;;5079451;28;20219;-80
2022/07/24 10:48:22;;;;;;;6.83;6.23;;;29.40;99.90;;;;;;5078040;28;20174;-79
2022/07/24 10:50:57;;;;;;;6.80;6.20;;;29.70;99.90;;;;;;5077515;28;20180;-80
2022/07/24 10:53:23;;;;;;;7.60;6.90;;;30.10;99.90;;;;;;5078019;28;20184;-79
2022/07/24 10:55:50;;;;;;;6.83;6.23;;;30.60;99.90;;;;;;5077987;28;20203;-79
2022/07/24 10:58:16;;;;;;;6.47;5.80;;;31.10;99.90;;;;;;5078420;28;20176;-79
2022/07/24 11:00:50;;;;;;;8.43;6.63;;;31.10;99.90;;;;;;5078836;28;20696;-79
2022/07/24 11:03:29;;;;;;;6.73;6.20;;;31.40;99.90;;;;;;5078000;28;20184;-80
2022/07/24 11:06:11;;;;;;;7.63;6.63;;;31.70;99.90;;;;;;5078628;28;20189;-79
2022/07/24 11:08:51;;;;;;;6.53;5.93;;;31.90;99.90;;;;;;5079472;28;20632;-80
2022/07/24 11:11:23;;;;;;;6.27;5.70;;;32.10;99.90;;;;;;5078417;28;20244;-79
2022/07/24 11:13:54;;;;;;;6.73;5.53;;;32.10;99.90;;;;;;5077041;28;20193;-80
2022/07/24 11:16:30;;;;;;;5.90;5.33;;;31.90;99.90;;;;;;5078264;28;20204;-80
2022/07/24 11:18:56;;;;;;;6.40;5.80;;;32.20;99.40;;;;;;5076864;28;20545;-79
2022/07/24 11:21:35;;;;;;;6.50;5.50;;;32.40;99.90;;;;;;5077472;28;20177;-80
2022/07/24 11:24:20;;;;;;;6.50;5.80;;;32.40;96.80;;;;;;5080317;28;20151;-80
2022/07/24 11:26:47;;;;;;;6.07;5.10;;;32.00;99.70;;;;;;5079854;28;20679;-80
2022/07/24 11:29:35;;;;;;;6.27;5.60;;;31.80;97.90;;;;;;5078409;28;20198;-80
2022/07/24 11:32:02;;;;;;;6.07;5.43;;;31.70;98.70;;;;;;5079155;28;20179;-80
2022/07/24 11:34:29;;;;;;;7.00;5.07;;;31.70;96.90;;;;;;5079002;28;20286;-80
2022/07/24 11:36:56;;;;;;;5.83;5.33;;;32.10;98.80;;;;;;5079314;28;20483;-80
2022/07/24 11:39:37;;;;;;;6.50;5.10;;;32.30;96.60;;;;;;5076884;28;20193;-80
2022/07/24 11:42:05;;;;;;;5.73;4.90;;;32.60;95.20;;;;;;5077228;28;20177;-80
2022/07/24 11:44:35;;;;;;;5.13;4.73;;;32.80;95.60;;;;;;5078140;28;20660;-80
2022/07/24 11:47:13;;;;;;;6.00;5.50;;;33.00;96.50;;;;;;5079228;28;20208;-84
2022/07/24 11:49:54;;;;;;;5.40;5.00;;;32.90;92.10;;;;;;5079670;28;20515;-81
2022/07/24 11:52:24;;;;;;;5.57;5.07;;;31.90;91.50;;;;;;5079748;28;20564;-80
2022/07/24 11:54:52;;;;;;;6.23;5.63;;;32.00;95.20;;;;;;5079193;28;20314;-81
2022/07/24 11:57:29;;;;;;;6.67;5.93;;;32.20;97.30;;;;;;5079423;28;20171;-80
2022/07/24 11:59:55;;;;;;;5.87;5.23;;;32.30;93.60;;;;;;5078825;28;20639;-81
2022/07/24 12:02:22;;;;;;;5.90;5.40;;;32.60;96.50;;;;;;5079557;28;20652;-81
2022/07/24 12:04:48;;;;;;;7.13;5.47;;;32.90;94.20;;;;;;5078246;28;20680;-80
2022/07/24 12:07:23;;;;;;;9.10;5.97;;;32.70;93.40;;;;;;5080265;28;20199;-83
2022/07/24 12:09:56;;;;;;;6.80;5.63;;;32.10;90.70;;;;;;5080369;28;20156;-83
2022/07/24 12:12:25;;;;;;;6.23;5.43;;;31.20;93.10;;;;;;5078085;28;20197;-82
2022/07/24 12:14:53;;;;;;;5.63;5.13;;;30.80;92.30;;;;;;5077967;28;20195;-82
2022/07/24 12:17:19;;;;;;;5.10;4.70;;;30.50;94.00;;;;;;5079626;28;20167;-80
2022/07/24 12:19:52;;;;;;;7.93;5.80;;;30.80;97.60;;;;;;5080737;28;20260;-81
2022/07/24 12:22:19;;;;;;;6.53;5.87;;;31.50;97.50;;;;;;5082253;28;20189;-80
2022/07/24 12:24:45;;;;;;;5.93;5.10;;;32.30;94.10;;;;;;5077276;28;20987;-80
2022/07/24 12:27:11;;;;;;;7.90;5.27;;;32.60;92.80;;;;;;5078732;28;20198;-81
2022/07/24 12:29:45;;;;;;;5.73;5.23;;;32.60;94.40;;;;;;5077967;28;20217;-81
2022/07/24 12:32:17;;;;;;;6.73;5.40;;;33.00;93.80;;;;;;5079697;28;20205;-81
2022/07/24 12:34:48;;;;;;;6.00;5.40;;;32.80;86.80;;;;;;5077441;28;20293;-81
2022/07/24 12:37:21;;;;;;;6.67;5.67;;;32.10;92.80;;;;;;5077302;28;20627;-81
2022/07/24 12:39:52;;;;;;;6.10;5.60;;;31.50;92.40;;;;;;5076390;28;20190;-81
2022/07/24 12:42:28;;;;;;;6.83;5.43;;;31.40;91.30;;;;;;5076016;28;20216;-80
2022/07/24 12:44:54;;;;;;;6.03;5.43;;;31.90;95.10;;;;;;5077180;28;20752;-80
2022/07/24 12:47:19;;;;;;;6.33;5.53;;;31.70;87.80;;;;;;5076297;28;20202;-81